CheckWX is a tool to help pilots better visualize weather data.  It is not intended as a substitute for an official pre-flight weather briefing.

03:14:24 UTC

LFPT METAR
Pontoise - Cormeilles-en-Vexin Airport
Pontoise, France
Current

14 mins ago

LFPT 080300Z AUTO 23015KT 9999 OVC020 10/06 Q1011
Observed
Dec-8 @ 03:00 UTC
Wind
  • 230° at 15 KTS
Visibility
10,000+ meters
Flight Rules
MVFR
Cloud Levels
  • Overcast at 2,000' AGL
Temperature
10°C / 50°F
Dewpoint
C / 43°F
Humidity
76%
Altimeter
29.85" Hg
Pressure
1010.92 hPa
Previous

44 mins ago

LFPT 080230Z AUTO 22012KT 9999 OVC021 10/06 Q1012
Observed
Dec-8 @ 02:30 UTC
Wind
  • 220° at 12 KTS
Visibility
10,000+ meters
Flight Rules
MVFR
Cloud Levels
  • Overcast at 2,100' AGL
Temperature
10°C / 50°F
Dewpoint
C / 43°F
Humidity
76%
Altimeter
29.88" Hg
Pressure
1011.92 hPa
Previous

1 hour ago

LFPT 080200Z AUTO 22010KT 9999 BKN021 OVC026 10/07 Q1013
Observed
Dec-8 @ 02:00 UTC
Wind
  • 220° at 10 KTS
Visibility
10,000+ meters
Flight Rules
MVFR
Cloud Levels
  • Broken at 2,100' AGL
  • Overcast at 2,600' AGL
Temperature
10°C / 50°F
Dewpoint
C / 45°F
Humidity
82%
Altimeter
29.91" Hg
Pressure
1012.92 hPa